Terminal Aerodrome Forecast
Issued by NWS

Home | Current Version | Previous Version | Text Only | Print | Product List | Glossary On
Versions: 1 2 3 4 5 6 7 8 9 10 11 12 13 14 15 16
817
FTUS41 KLWX 272339
TAFMTN
TAF
KMTN 272339Z 2800/2824 16012KT P6SM SCT070
     FM280100 16011KT P6SM BKN070
     FM280600 19007KT P6SM BKN040
     FM280800 23006KT P6SM BKN080
     FM281100 29007KT P6SM SCT250
     FM281900 22006KT P6SM FEW250
     FM282100 18007KT P6SM FEW250
      AMD NOT SKED 2802/2812=

USA.gov is the U.S. government's official web portal to all federal, state and local government web resources and services.